createdAt,value
2018-02-07T00:01:18.011Z,99.90
2018-02-07T00:03:45.599Z,99.90
2018-02-07T00:06:13.878Z,99.90
2018-02-07T00:08:42.139Z,99.90
2018-02-07T00:11:09.628Z,99.90
2018-02-07T00:13:37.110Z,99.90
2018-02-07T00:16:04.603Z,99.90
2018-02-07T00:18:32.090Z,99.90
2018-02-07T00:21:00.346Z,99.90
2018-02-07T00:23:27.828Z,99.90
2018-02-07T00:25:56.090Z,99.90
2018-02-07T00:28:24.334Z,99.90
2018-02-07T00:30:51.822Z,99.90
2018-02-07T00:33:20.075Z,99.90
2018-02-07T00:35:48.376Z,99.90
2018-02-07T00:38:16.645Z,99.90
2018-02-07T00:40:44.143Z,99.90
2018-02-07T00:43:11.626Z,99.90
2018-02-07T00:45:39.115Z,99.90
2018-02-07T00:48:06.600Z,99.90
2018-02-07T00:50:34.898Z,99.90
2018-02-07T00:53:02.387Z,99.90
2018-02-07T00:55:29.883Z,99.90
2018-02-07T00:57:58.131Z,99.90
2018-02-07T01:00:25.630Z,99.90
2018-02-07T01:02:53.878Z,99.90
2018-02-07T01:05:21.378Z,99.90
2018-02-07T01:07:48.863Z,99.90
2018-02-07T01:10:16.391Z,99.90
2018-02-07T01:12:43.934Z,99.90
2018-02-07T01:15:12.218Z,99.90
2018-02-07T01:17:39.731Z,99.90
2018-02-07T01:20:07.230Z,99.90
2018-02-07T01:22:35.810Z,99.90
2018-02-07T01:25:04.065Z,99.90
2018-02-07T01:27:31.562Z,99.90
2018-02-07T01:29:59.039Z,99.90
2018-02-07T01:32:26.536Z,99.90
2018-02-07T01:34:54.121Z,99.90
2018-02-07T01:37:22.395Z,99.90
2018-02-07T01:39:50.651Z,99.90
2018-02-07T01:42:18.149Z,99.90
2018-02-07T01:44:45.631Z,99.90
2018-02-07T01:47:13.124Z,99.90
2018-02-07T01:49:40.616Z,99.90
2018-02-07T01:52:08.868Z,99.90
2018-02-07T01:54:36.349Z,99.90
2018-02-07T01:57:04.606Z,99.90
2018-02-07T01:59:32.894Z,99.90
2018-02-07T02:02:01.163Z,99.90
2018-02-07T02:04:29.409Z,99.90
2018-02-07T02:06:57.007Z,99.90
2018-02-07T02:09:25.282Z,99.90
2018-02-07T02:11:53.544Z,99.90
2018-02-07T02:14:21.122Z,99.90
2018-02-07T02:16:48.673Z,99.90
2018-02-07T02:19:16.954Z,99.90
2018-02-07T02:21:45.211Z,99.90
2018-02-07T02:24:12.695Z,99.90
2018-02-07T02:26:40.966Z,99.90
2018-02-07T02:29:09.218Z,99.90
2018-02-07T02:31:36.806Z,99.90
2018-02-07T02:34:05.051Z,99.90
2018-02-07T02:36:39.480Z,99.90
2018-02-07T02:39:06.967Z,99.90
2018-02-07T02:41:35.227Z,99.90
2018-02-07T02:44:03.486Z,99.90
2018-02-07T02:46:31.008Z,99.90
2018-02-07T02:48:58.538Z,99.90
2018-02-07T02:51:26.043Z,99.90
2018-02-07T02:53:53.540Z,99.90
2018-02-07T02:56:21.799Z,99.90
2018-02-07T02:58:49.287Z,99.90
2018-02-07T03:01:17.570Z,99.90
2018-02-07T03:03:45.046Z,99.90
2018-02-07T03:06:12.536Z,99.90
2018-02-07T03:08:40.022Z,99.90
2018-02-07T03:11:08.296Z,99.90
2018-02-07T03:13:36.562Z,99.90
2018-02-07T03:16:04.135Z,99.90
2018-02-07T03:18:32.389Z,99.90
2018-02-07T03:20:59.975Z,99.90
2018-02-07T03:23:28.232Z,99.90
2018-02-07T03:25:55.819Z,99.90
2018-02-07T03:28:25.119Z,99.90
2018-02-07T03:30:53.391Z,99.90
2018-02-07T03:33:21.663Z,99.90
2018-02-07T03:35:49.944Z,99.90
2018-02-07T03:38:18.219Z,99.90
2018-02-07T03:40:46.495Z,99.90
2018-02-07T03:43:14.738Z,99.90
2018-02-07T03:45:42.232Z,99.90
2018-02-07T03:48:10.493Z,99.90
2018-02-07T03:50:38.022Z,99.90
2018-02-07T03:53:05.524Z,99.90
2018-02-07T03:55:33.788Z,99.90
2018-02-07T03:58:01.359Z,99.90
2018-02-07T04:00:29.638Z,99.90
2018-02-07T04:02:57.900Z,99.90
2018-02-07T04:05:25.478Z,99.90
2018-02-07T04:07:53.746Z,99.90
2018-02-07T04:10:22.028Z,99.90
2018-02-07T04:12:50.289Z,99.90
2018-02-07T04:15:17.784Z,99.90
2018-02-07T04:17:45.270Z,99.90
2018-02-07T04:20:12.775Z,99.90
2018-02-07T04:22:41.046Z,99.90
2018-02-07T04:25:09.319Z,99.90
2018-02-07T04:27:37.575Z,99.90
2018-02-07T04:30:05.067Z,99.90
2018-02-07T04:32:33.326Z,99.90
2018-02-07T04:35:00.819Z,99.90
2018-02-07T04:37:28.359Z,99.90
2018-02-07T04:39:56.612Z,99.90
2018-02-07T04:42:24.111Z,99.90
2018-02-07T04:44:51.702Z,99.90
2018-02-07T04:47:19.202Z,99.90
2018-02-07T04:49:47.482Z,99.90
2018-02-07T04:52:15.777Z,99.90
2018-02-07T04:54:43.290Z,99.90
2018-02-07T04:57:10.771Z,99.90
2018-02-07T04:59:38.300Z,99.90
2018-02-07T05:02:05.790Z,99.90
2018-02-07T05:04:34.085Z,99.90
2018-02-07T05:07:01.640Z,99.90
2018-02-07T05:09:29.903Z,99.90
2018-02-07T05:11:57.478Z,99.90
2018-02-07T05:14:25.035Z,99.90
2018-02-07T05:16:53.285Z,99.90
2018-02-07T05:19:20.782Z,99.90
2018-02-07T05:21:48.271Z,99.90
2018-02-07T05:24:15.759Z,99.90
2018-02-07T05:26:43.248Z,99.90
2018-02-07T05:29:11.489Z,99.90
2018-02-07T05:31:39.084Z,99.90
2018-02-07T05:34:07.354Z,99.90
2018-02-07T05:36:35.635Z,99.90
2018-02-07T05:39:03.888Z,99.90
2018-02-07T05:41:32.236Z,99.90
2018-02-07T05:43:59.742Z,99.90
2018-02-07T05:46:27.991Z,99.90
2018-02-07T05:48:55.577Z,99.90
2018-02-07T05:51:23.862Z,99.90
2018-02-07T05:53:52.134Z,99.90
2018-02-07T05:56:20.404Z,99.90
2018-02-07T05:58:48.657Z,99.90
2018-02-07T06:01:16.150Z,99.90
2018-02-07T06:03:44.397Z,99.90
2018-02-07T06:06:12.063Z,99.90
2018-02-07T06:08:39.514Z,99.90
2018-02-07T06:11:07.017Z,99.90
2018-02-07T06:13:35.307Z,99.90
2018-02-07T06:16:02.820Z,99.90
2018-02-07T06:18:31.096Z,99.90
2018-02-07T06:20:58.579Z,99.90
2018-02-07T06:23:26.134Z,99.90
2018-02-07T06:25:54.383Z,99.90
2018-02-07T06:28:22.000Z,99.90
2018-02-07T06:30:49.520Z,99.90
2018-02-07T06:33:17.092Z,99.90
2018-02-07T06:35:44.577Z,99.90
2018-02-07T06:38:12.082Z,99.90
2018-02-07T06:40:39.571Z,99.90
2018-02-07T06:43:07.994Z,99.90
2018-02-07T06:45:35.504Z,99.90
2018-02-07T06:48:03.030Z,99.90
2018-02-07T06:50:30.539Z,99.90
2018-02-07T06:52:58.030Z,99.90
2018-02-07T06:55:25.547Z,99.90
2018-02-07T06:57:53.033Z,99.90
2018-02-07T07:00:20.547Z,99.90
2018-02-07T07:02:48.014Z,99.90
2018-02-07T07:05:15.504Z,99.90
2018-02-07T07:07:43.012Z,99.90
2018-02-07T07:10:11.313Z,99.90
2018-02-07T07:12:38.843Z,99.90
2018-02-07T07:15:06.444Z,99.90
2018-02-07T07:17:33.966Z,99.90
2018-02-07T07:20:02.239Z,99.90
2018-02-07T07:22:30.567Z,99.90
2018-02-07T07:24:58.083Z,99.90
2018-02-07T07:27:26.351Z,99.90
2018-02-07T07:29:53.850Z,99.90
2018-02-07T07:32:21.343Z,99.90
2018-02-07T07:34:48.838Z,99.90
2018-02-07T07:37:17.087Z,99.90
2018-02-07T07:39:44.571Z,99.90
2018-02-07T07:42:12.839Z,99.90
2018-02-07T07:44:40.324Z,99.90
2018-02-07T07:47:07.815Z,99.90
2018-02-07T07:49:35.343Z,99.90
2018-02-07T07:52:02.859Z,99.90
2018-02-07T07:54:30.345Z,99.90
2018-02-07T07:56:58.634Z,99.90
2018-02-07T07:59:26.127Z,99.90
2018-02-07T08:01:53.645Z,99.90
2018-02-07T08:04:21.252Z,99.90
2018-02-07T08:06:48.854Z,99.90
2018-02-07T08:09:17.130Z,99.90
2018-02-07T08:11:45.400Z,99.90
2018-02-07T08:14:13.016Z,99.90
2018-02-07T08:16:40.503Z,99.90
2018-02-07T08:19:08.011Z,99.90
2018-02-07T08:21:35.509Z,99.90
2018-02-07T08:24:03.002Z,99.90
2018-02-07T08:26:31.258Z,99.90
2018-02-07T08:28:58.740Z,99.90
2018-02-07T08:31:27.009Z,99.90
2018-02-07T08:33:55.254Z,99.40
2018-02-07T08:36:22.782Z,99.50
2018-02-07T08:38:50.278Z,99.00
2018-02-07T08:41:17.778Z,98.30
2018-02-07T08:43:45.272Z,98.10
2018-02-07T08:46:13.739Z,98.10
2018-02-07T08:48:41.239Z,97.90
2018-02-07T08:51:08.780Z,97.20
2018-02-07T08:53:36.262Z,97.30
2018-02-07T08:56:04.539Z,97.20
2018-02-07T08:58:32.038Z,97.10
2018-02-07T09:00:59.533Z,96.80
2018-02-07T09:03:27.006Z,96.90
2018-02-07T09:05:54.509Z,97.10
2018-02-07T09:08:21.993Z,97.50
2018-02-07T09:10:49.487Z,97.90
2018-02-07T09:13:17.031Z,97.80
2018-02-07T09:15:44.509Z,97.40
2018-02-07T09:18:12.012Z,97.40
2018-02-07T09:20:39.518Z,97.20
2018-02-07T09:23:06.995Z,97.20
2018-02-07T09:25:35.256Z,97.10
2018-02-07T09:28:02.837Z,97.10
2018-02-07T09:30:31.108Z,97.00
2018-02-07T09:32:59.364Z,97.10
2018-02-07T09:35:26.843Z,97.00
2018-02-07T09:37:55.090Z,96.80
2018-02-07T09:40:22.583Z,96.80
2018-02-07T09:42:50.840Z,96.40
2018-02-07T09:45:18.425Z,96.40
2018-02-07T09:47:46.691Z,95.80
2018-02-07T09:50:14.969Z,95.40
2018-02-07T09:52:43.239Z,95.10
2018-02-07T09:55:11.494Z,95.10
2018-02-07T09:57:38.978Z,95.00
2018-02-07T10:00:07.250Z,94.90
2018-02-07T10:02:35.506Z,94.40
2018-02-07T10:05:03.010Z,94.40
2018-02-07T10:07:31.133Z,94.30
2018-02-07T10:09:58.651Z,94.20
2018-02-07T10:12:26.152Z,94.00
2018-02-07T10:14:53.635Z,93.70
2018-02-07T10:17:22.289Z,92.80
2018-02-07T10:19:49.774Z,92.80
2018-02-07T10:22:17.305Z,92.20
2018-02-07T10:24:44.798Z,91.20
2018-02-07T10:27:13.082Z,90.40
2018-02-07T10:29:41.326Z,90.40
2018-02-07T10:32:08.819Z,90.40
2018-02-07T10:34:36.325Z,90.00
2018-02-07T10:37:03.806Z,89.50
2018-02-07T10:39:31.389Z,88.30
2018-02-07T10:41:59.641Z,85.10
2018-02-07T10:44:27.212Z,85.00
2018-02-07T10:46:55.502Z,83.00
2018-02-07T10:49:23.758Z,83.80
2018-02-07T10:51:51.331Z,83.50
2018-02-07T10:54:19.599Z,82.70
2018-02-07T10:56:47.871Z,82.50
2018-02-07T10:59:16.129Z,81.90
2018-02-07T11:01:43.663Z,81.80
2018-02-07T11:04:11.179Z,82.70
2018-02-07T11:06:39.463Z,81.70
2018-02-07T11:09:06.978Z,81.60
2018-02-07T11:11:35.272Z,80.20
2018-02-07T11:14:02.763Z,80.20
2018-02-07T11:16:30.275Z,80.70
2018-02-07T11:18:57.763Z,79.90
2018-02-07T11:21:26.032Z,78.40
2018-02-07T11:23:54.299Z,78.50
2018-02-07T11:26:21.800Z,77.90
2018-02-07T11:28:49.292Z,78.70
2018-02-07T11:31:16.801Z,79.20
2018-02-07T11:33:44.289Z,77.10
2018-02-07T11:36:11.794Z,78.20
2018-02-07T11:38:39.282Z,77.40
2018-02-07T11:41:06.771Z,79.00
2018-02-07T11:43:34.296Z,77.70
2018-02-07T11:46:01.786Z,78.40
2018-02-07T11:48:29.271Z,74.80
2018-02-07T11:50:56.775Z,75.40
2018-02-07T11:53:24.292Z,74.10
2018-02-07T11:55:51.789Z,70.50
2018-02-07T11:58:19.267Z,73.20
2018-02-07T12:00:46.799Z,71.40
2018-02-07T12:03:15.087Z,71.40
2018-02-07T12:05:43.329Z,71.80
2018-02-07T12:08:10.817Z,71.60
2018-02-07T12:10:38.298Z,67.70
2018-02-07T12:13:05.782Z,69.70
2018-02-07T12:15:33.281Z,67.50
2018-02-07T12:18:01.535Z,68.40
2018-02-07T12:20:29.026Z,68.30
2018-02-07T12:22:56.531Z,67.70
2018-02-07T12:25:24.009Z,67.90
2018-02-07T12:27:51.486Z,67.00
2018-02-07T12:30:19.739Z,66.30
2018-02-07T12:32:48.981Z,66.30
2018-02-07T12:35:17.555Z,65.30
2018-02-07T12:37:45.098Z,66.70
2018-02-07T12:40:13.255Z,64.50
2018-02-07T12:42:41.593Z,65.00
2018-02-07T12:45:09.284Z,63.70
2018-02-07T12:47:37.130Z,60.70
2018-02-07T12:50:05.531Z,62.60
2018-02-07T12:52:34.459Z,64.50
2018-02-07T12:55:03.715Z,64.50
2018-02-07T12:57:32.717Z,62.50
2018-02-07T13:00:01.300Z,62.40
2018-02-07T13:02:31.922Z,63.80
2018-02-07T13:05:01.941Z,65.60
2018-02-07T13:07:30.230Z,63.30
2018-02-07T13:09:58.510Z,63.10
2018-02-07T13:12:26.021Z,64.20
2018-02-07T13:14:53.560Z,65.10
2018-02-07T13:17:21.087Z,65.00
2018-02-07T13:19:49.414Z,64.90
2018-02-07T13:22:17.939Z,65.40
2018-02-07T13:24:45.534Z,67.80
2018-02-07T13:27:13.869Z,70.70
2018-02-07T13:29:43.404Z,69.60
2018-02-07T13:32:10.968Z,69.60
2018-02-07T13:34:44.092Z,71.40
2018-02-07T13:37:13.024Z,71.30
2018-02-07T13:39:41.790Z,73.30
2018-02-07T13:42:09.903Z,74.90
2018-02-07T13:44:37.460Z,74.70
2018-02-07T13:47:05.030Z,75.10
2018-02-07T13:49:33.278Z,75.80
2018-02-07T13:52:00.776Z,75.80
2018-02-07T13:54:28.267Z,77.20
2018-02-07T13:56:55.751Z,76.70
2018-02-07T13:59:23.261Z,77.70
2018-02-07T14:01:50.766Z,78.40
2018-02-07T14:04:18.255Z,78.50
2018-02-07T14:06:46.516Z,79.20
2018-02-07T14:09:14.013Z,79.10
2018-02-07T14:11:41.490Z,79.80
2018-02-07T14:14:08.996Z,79.30
2018-02-07T14:16:36.570Z,79.40
2018-02-07T14:19:04.839Z,80.90
2018-02-07T14:21:32.344Z,80.90
2018-02-07T14:23:59.827Z,81.70
2018-02-07T14:26:27.353Z,82.20
2018-02-07T14:28:54.833Z,82.50
2018-02-07T14:31:22.313Z,82.50
2018-02-07T14:33:49.809Z,82.40
2018-02-07T14:36:18.139Z,82.40
2018-02-07T14:38:45.754Z,83.20
2018-02-07T14:41:13.234Z,83.50
2018-02-07T14:43:40.758Z,84.80
2018-02-07T14:46:09.014Z,85.00
2018-02-07T14:48:36.507Z,84.90
2018-02-07T14:51:04.020Z,85.50
2018-02-07T14:53:31.511Z,85.90
2018-02-07T14:56:00.052Z,87.30
2018-02-07T14:58:27.545Z,87.20
2018-02-07T15:00:55.880Z,86.80
2018-02-07T15:03:23.407Z,86.80
2018-02-07T15:05:50.890Z,87.80
2018-02-07T15:08:18.379Z,87.90
2018-02-07T15:10:45.874Z,88.80
2018-02-07T15:13:13.463Z,88.90
2018-02-07T15:15:40.983Z,89.00
2018-02-07T15:18:08.483Z,89.20
2018-02-07T15:20:35.994Z,89.50
2018-02-07T15:23:04.243Z,90.20
2018-02-07T15:25:31.727Z,90.20
2018-02-07T15:28:00.019Z,90.60
2018-02-07T15:30:27.606Z,90.60
2018-02-07T15:32:55.113Z,90.60
2018-02-07T15:35:23.374Z,91.20
2018-02-07T15:37:50.898Z,91.20
2018-02-07T15:40:18.454Z,91.40
2018-02-07T15:42:46.038Z,91.30
2018-02-07T15:45:13.557Z,91.60
2018-02-07T15:47:41.095Z,92.20
2018-02-07T15:50:08.607Z,92.20
2018-02-07T15:52:36.117Z,92.10
2018-02-07T15:55:03.663Z,92.20
2018-02-07T15:57:31.213Z,92.30
2018-02-07T15:59:58.734Z,92.60
2018-02-07T16:02:26.299Z,92.70
2018-02-07T16:04:53.811Z,93.00
2018-02-07T16:07:21.379Z,93.30
2018-02-07T16:09:48.935Z,93.40
2018-02-07T16:12:16.466Z,93.40
2018-02-07T16:14:44.721Z,94.40
2018-02-07T16:17:12.232Z,94.10
2018-02-07T16:19:39.725Z,94.20
2018-02-07T16:22:07.243Z,94.30
2018-02-07T16:24:35.676Z,94.70
2018-02-07T16:27:03.170Z,94.60
2018-02-07T16:29:31.447Z,95.00
2018-02-07T16:31:59.711Z,95.10
2018-02-07T16:34:27.237Z,95.10
2018-02-07T16:36:54.740Z,95.30
2018-02-07T16:39:23.064Z,95.50
2018-02-07T16:41:50.543Z,95.50
2018-02-07T16:44:18.027Z,95.50
2018-02-07T16:46:45.528Z,95.70
2018-02-07T16:49:13.026Z,95.90
2018-02-07T16:51:40.540Z,96.30
2018-02-07T16:54:08.109Z,96.60
2018-02-07T16:56:35.597Z,96.60
2018-02-07T16:59:03.092Z,96.50
2018-02-07T17:01:30.593Z,96.40
2018-02-07T17:03:58.090Z,96.50
2018-02-07T17:06:25.583Z,96.50
2018-02-07T17:08:53.106Z,96.80
2018-02-07T17:11:21.397Z,96.90
2018-02-07T17:13:49.674Z,97.00
2018-02-07T17:16:17.206Z,97.00
2018-02-07T17:18:44.737Z,97.10
2018-02-07T17:21:12.238Z,97.30
2018-02-07T17:23:40.543Z,98.00
2018-02-07T17:26:08.226Z,97.90
2018-02-07T17:28:35.799Z,97.90
2018-02-07T17:31:03.299Z,97.90
2018-02-07T17:33:30.835Z,98.10
2018-02-07T17:35:58.332Z,98.40
2018-02-07T17:38:26.596Z,98.30
2018-02-07T17:40:54.150Z,98.30
2018-02-07T17:43:21.685Z,98.40
2018-02-07T17:45:49.382Z,98.70
2018-02-07T17:48:16.875Z,98.70
2018-02-07T17:50:44.452Z,98.60
2018-02-07T17:53:11.947Z,98.80
2018-02-07T17:55:40.713Z,99.20
2018-02-07T17:58:08.218Z,99.10
2018-02-07T18:00:36.497Z,99.60
2018-02-07T18:03:04.751Z,99.60
2018-02-07T18:05:32.235Z,99.60
2018-02-07T18:07:59.723Z,99.60
2018-02-07T18:10:27.270Z,99.60
2018-02-07T18:12:54.783Z,99.70
2018-02-07T18:15:23.796Z,99.80
2018-02-07T18:17:51.351Z,99.80
2018-02-07T18:20:19.606Z,99.90
2018-02-07T18:22:47.102Z,99.90
2018-02-07T18:25:14.612Z,99.90
2018-02-07T18:27:42.104Z,99.90
2018-02-07T18:30:10.379Z,99.90
2018-02-07T18:32:38.639Z,99.90
2018-02-07T18:35:06.127Z,99.90
2018-02-07T18:37:34.402Z,99.90
2018-02-07T18:40:02.697Z,99.90
2018-02-07T18:42:30.223Z,99.90
2018-02-07T18:44:58.489Z,99.90
2018-02-07T18:47:26.762Z,99.90
2018-02-07T18:49:54.273Z,99.90
2018-02-07T18:52:21.789Z,99.90
2018-02-07T18:54:50.071Z,99.90
2018-02-07T18:57:18.338Z,99.90
2018-02-07T18:59:45.848Z,99.90
2018-02-07T19:02:13.357Z,99.90
2018-02-07T19:04:42.391Z,99.90
2018-02-07T19:07:09.904Z,99.90
2018-02-07T19:09:37.399Z,99.90
2018-02-07T19:12:04.941Z,99.90
2018-02-07T19:14:33.302Z,99.90
2018-02-07T19:17:00.839Z,99.90
2018-02-07T19:19:29.138Z,99.90
2018-02-07T19:21:58.678Z,99.90
2018-02-07T19:24:26.208Z,99.90
2018-02-07T19:26:54.412Z,99.90
2018-02-07T19:29:22.033Z,99.90
2018-02-07T19:31:49.648Z,99.90
2018-02-07T19:34:17.533Z,99.90
2018-02-07T19:36:45.020Z,99.90
2018-02-07T19:39:12.545Z,99.90
2018-02-07T19:41:40.073Z,99.90
2018-02-07T19:44:07.616Z,99.90
2018-02-07T19:46:35.882Z,99.90
2018-02-07T19:49:04.202Z,99.90
2018-02-07T19:51:31.714Z,99.90
2018-02-07T19:53:59.221Z,99.90
2018-02-07T19:56:26.775Z,99.90
2018-02-07T19:58:54.271Z,99.90
2018-02-07T20:01:21.764Z,99.90
2018-02-07T20:03:50.022Z,99.90
2018-02-07T20:06:17.559Z,99.90
2018-02-07T20:08:45.958Z,99.90
2018-02-07T20:11:13.443Z,99.90
2018-02-07T20:13:41.746Z,99.90
2018-02-07T20:16:09.243Z,99.90
2018-02-07T20:18:36.811Z,99.90
2018-02-07T20:21:05.150Z,99.90
2018-02-07T20:23:32.730Z,99.90
2018-02-07T20:26:00.236Z,99.90
2018-02-07T20:28:28.509Z,99.90
2018-02-07T20:30:56.775Z,99.90
2018-02-07T20:33:24.268Z,99.90
2018-02-07T20:35:52.106Z,99.90
2018-02-07T20:38:20.378Z,99.90
2018-02-07T20:40:48.661Z,99.90
2018-02-07T20:43:16.955Z,99.90
2018-02-07T20:45:44.435Z,99.90
2018-02-07T20:48:15.804Z,99.90
2018-02-07T20:50:43.313Z,99.90
2018-02-07T20:53:11.604Z,99.90
2018-02-07T20:55:39.121Z,99.90
2018-02-07T20:58:06.607Z,99.90
2018-02-07T21:00:34.120Z,99.90
2018-02-07T21:03:01.611Z,99.90
2018-02-07T21:05:29.880Z,99.90
2018-02-07T21:07:57.399Z,99.90
2018-02-07T21:10:24.917Z,99.90
2018-02-07T21:12:53.182Z,99.90
2018-02-07T21:15:21.442Z,99.90
2018-02-07T21:17:49.034Z,99.90
2018-02-07T21:20:16.530Z,99.90
2018-02-07T21:22:44.051Z,99.90
2018-02-07T21:25:11.544Z,99.90
2018-02-07T21:27:39.037Z,99.90
2018-02-07T21:30:06.530Z,99.90
2018-02-07T21:32:34.066Z,99.90
2018-02-07T21:35:02.365Z,99.90
2018-02-07T21:37:32.501Z,99.90
2018-02-07T21:39:59.987Z,99.90
2018-02-07T21:42:27.490Z,99.90
2018-02-07T21:44:55.758Z,99.90
2018-02-07T21:47:24.035Z,99.90
2018-02-07T21:49:52.346Z,99.90
2018-02-07T21:52:19.850Z,99.90
2018-02-07T21:54:48.184Z,99.90
2018-02-07T21:57:15.695Z,99.90
2018-02-07T21:59:43.215Z,99.90
2018-02-07T22:02:11.502Z,99.90
2018-02-07T22:04:39.027Z,99.90
2018-02-07T22:07:06.534Z,99.90
2018-02-07T22:09:34.048Z,99.90
2018-02-07T22:12:01.562Z,99.90
2018-02-07T22:14:29.060Z,99.90
2018-02-07T22:16:56.746Z,99.90
2018-02-07T22:19:24.244Z,99.90
2018-02-07T22:21:51.751Z,99.90
2018-02-07T22:24:19.359Z,99.90
2018-02-07T22:26:46.847Z,99.90
2018-02-07T22:29:15.126Z,99.90
2018-02-07T22:31:43.371Z,99.90
2018-02-07T22:34:10.881Z,99.90
2018-02-07T22:36:38.379Z,99.90
2018-02-07T22:39:05.876Z,99.90
2018-02-07T22:41:34.167Z,99.90
2018-02-07T22:44:01.666Z,99.90
2018-02-07T22:46:29.171Z,99.90
2018-02-07T22:48:56.650Z,99.90
2018-02-07T22:51:24.170Z,99.90
2018-02-07T22:53:52.481Z,99.90
2018-02-07T22:56:19.998Z,99.90
2018-02-07T22:58:47.491Z,99.90
2018-02-07T23:01:14.982Z,99.90
2018-02-07T23:03:42.555Z,99.90
2018-02-07T23:06:10.073Z,99.90
2018-02-07T23:08:37.638Z,99.90
2018-02-07T23:11:05.128Z,99.90
2018-02-07T23:13:32.627Z,99.90
2018-02-07T23:16:00.899Z,99.90
2018-02-07T23:18:28.429Z,99.90
2018-02-07T23:20:55.915Z,99.90
2018-02-07T23:23:24.227Z,99.90
2018-02-07T23:25:51.728Z,99.90
2018-02-07T23:28:19.221Z,99.90
2018-02-07T23:30:47.506Z,99.90
2018-02-07T23:33:14.998Z,99.90
2018-02-07T23:35:42.531Z,99.90
2018-02-07T23:38:10.112Z,99.90
2018-02-07T23:40:37.600Z,99.90
2018-02-07T23:43:05.123Z,99.90
2018-02-07T23:45:32.624Z,99.90
2018-02-07T23:48:00.107Z,99.90
2018-02-07T23:50:28.358Z,99.90
2018-02-07T23:52:55.937Z,99.90
2018-02-07T23:55:24.215Z,99.90
2018-02-07T23:57:52.472Z,99.90
